Time;durP1;ratioP1;P1;durP2;ratioP2;P2;SDS_P1;SDS_P2;PMS_P1;PMS_P2;Temp;Humidity;BMP_temperature;BMP_pressure;BME280_temperature;BME280_humidity;BME280_pressure;Samples;Min_cycle;Max_cycle;Signal;HPM_P1;HPM_P2
2023/09/01 00:04:48;;;;;;;21.25;14.38;;;;;;;;;;10172802;29;20424;-91
2023/09/01 00:09:50;;;;;;;22.85;14.00;;;;;;;;;;10168670;29;20038;-91
2023/09/01 00:14:51;;;;;;;22.70;14.25;;;;;;;;;;10157510;29;20126;-91
2023/09/01 00:19:52;;;;;;;29.83;16.92;;;;;;;;;;10155308;29;20052;-90
2023/09/01 00:24:53;;;;;;;24.42;15.88;;;;;;;;;;10156332;29;20398;-90
2023/09/01 00:29:54;;;;;;;30.90;17.30;;;;;;;;;;10170612;29;20043;-90
2023/09/01 00:34:56;;;;;;;34.58;18.20;;;;;;;;;;10162570;29;20043;-91
2023/09/01 00:39:57;;;;;;;25.70;15.38;;;;;;;;;;10181120;29;20884;-90
2023/09/01 00:44:59;;;;;;;20.58;13.52;;;;;;;;;;10161169;29;20048;-91
2023/09/01 00:50:07;;;;;;;21.75;13.40;;;;;;;;;;10148652;29;20094;-91
2023/09/01 00:55:08;;;;;;;22.38;13.02;;;;;;;;;;10155888;29;20063;-90
2023/09/01 01:00:10;;;;;;;23.45;13.13;;;;;;;;;;10169352;29;20138;-91
2023/09/01 01:05:15;;;;;;;17.52;12.30;;;;;;;;;;10174316;29;20127;-91
2023/09/01 01:10:20;;;;;;;18.43;11.30;;;;;;;;;;10171522;29;20039;-91
2023/09/01 01:15:22;;;;;;;23.10;12.27;;;;;;;;;;10166328;29;20032;-90
2023/09/01 01:20:34;;;;;;;21.30;12.52;;;;;;;;;;10162026;29;20048;-90
2023/09/01 01:25:35;;;;;;;22.70;12.82;;;;;;;;;;10166345;29;20142;-91
2023/09/01 01:30:37;;;;;;;18.52;11.75;;;;;;;;;;10176215;29;20066;-90
2023/09/01 01:35:38;;;;;;;18.58;11.93;;;;;;;;;;10151721;29;20495;-91
2023/09/01 01:40:41;;;;;;;22.83;12.98;;;;;;;;;;10162314;29;20039;-90
2023/09/01 01:45:43;;;;;;;17.02;11.02;;;;;;;;;;10173824;29;20087;-91
2023/09/01 01:50:44;;;;;;;22.55;12.57;;;;;;;;;;10178515;29;20090;-90
2023/09/01 01:55:45;;;;;;;20.83;13.23;;;;;;;;;;10173136;29;20062;-91
2023/09/01 02:00:47;;;;;;;24.52;12.25;;;;;;;;;;10152675;29;20036;-90
2023/09/01 02:05:48;;;;;;;22.75;14.07;;;;;;;;;;10166988;29;20135;-90
2023/09/01 02:10:49;;;;;;;19.02;12.57;;;;;;;;;;10150255;29;20130;-91
2023/09/01 02:15:50;;;;;;;17.50;12.23;;;;;;;;;;10168202;29;20131;-90
2023/09/01 02:20:51;;;;;;;23.13;11.88;;;;;;;;;;10156883;29;20134;-90
2023/09/01 02:25:53;;;;;;;17.52;10.43;;;;;;;;;;10170525;29;20032;-91
2023/09/01 02:30:54;;;;;;;19.23;11.20;;;;;;;;;;10160554;29;20036;-90
2023/09/01 02:36:15;;;;;;;19.88;12.40;;;;;;;;;;10152474;29;20032;-91
2023/09/01 02:41:16;;;;;;;26.55;13.63;;;;;;;;;;10145194;29;20560;-90
2023/09/01 02:46:17;;;;;;;26.55;16.05;;;;;;;;;;10160931;29;20591;-91
2023/09/01 02:51:18;;;;;;;29.52;16.38;;;;;;;;;;10160326;29;20455;-91
2023/09/01 02:56:19;;;;;;;27.05;17.15;;;;;;;;;;10160263;29;20091;-91
2023/09/01 03:01:20;;;;;;;37.70;20.00;;;;;;;;;;10167069;29;20503;-92
2023/09/01 03:06:21;;;;;;;33.35;19.70;;;;;;;;;;10178168;29;20718;-92
2023/09/01 03:11:22;;;;;;;23.88;14.30;;;;;;;;;;10170936;29;20035;-91
2023/09/01 03:16:23;;;;;;;25.30;15.55;;;;;;;;;;10170965;29;20065;-92
2023/09/01 03:21:26;;;;;;;25.88;14.13;;;;;;;;;;10172864;29;20032;-91
2023/09/01 03:26:29;;;;;;;22.13;12.60;;;;;;;;;;10163090;29;20499;-88
2023/09/01 03:31:31;;;;;;;23.00;12.52;;;;;;;;;;10185450;29;20035;-90
2023/09/01 03:36:32;;;;;;;22.90;13.23;;;;;;;;;;10174592;29;20051;-90
2023/09/01 03:41:33;;;;;;;26.52;13.02;;;;;;;;;;10166094;29;20035;-90
2023/09/01 03:46:34;;;;;;;19.17;12.05;;;;;;;;;;10177279;29;20036;-90
2023/09/01 03:51:36;;;;;;;23.95;13.98;;;;;;;;;;10164943;29;20044;-89
2023/09/01 03:56:37;;;;;;;21.20;12.98;;;;;;;;;;10196189;29;20115;-88
2023/09/01 04:01:38;;;;;;;21.70;13.00;;;;;;;;;;10237993;28;20035;-88
2023/09/01 04:06:39;;;;;;;23.88;12.30;;;;;;;;;;10243573;29;20537;-88
2023/09/01 04:11:40;;;;;;;17.08;11.30;;;;;;;;;;10239079;29;20046;-90
2023/09/01 04:16:42;;;;;;;16.33;10.43;;;;;;;;;;10233313;29;20109;-90
2023/09/01 04:21:43;;;;;;;17.35;11.30;;;;;;;;;;10225461;28;20055;-91
2023/09/01 04:26:44;;;;;;;17.77;10.38;;;;;;;;;;10229849;29;20024;-88
2023/09/01 04:31:45;;;;;;;20.10;11.82;;;;;;;;;;10211092;29;20039;-89
2023/09/01 04:36:49;;;;;;;21.33;12.18;;;;;;;;;;10223628;28;20048;-89
2023/09/01 04:41:50;;;;;;;24.00;12.13;;;;;;;;;;10224756;29;20432;-88
2023/09/01 04:46:51;;;;;;;18.92;12.15;;;;;;;;;;10224806;29;20035;-90
2023/09/01 04:51:52;;;;;;;24.88;13.90;;;;;;;;;;10231173;29;20650;-87
2023/09/01 04:56:54;;;;;;;37.63;25.40;;;;;;;;;;10229819;29;20059;-88
2023/09/01 05:01:55;;;;;;;37.10;26.50;;;;;;;;;;10231382;29;20045;-89
2023/09/01 05:06:56;;;;;;;29.17;17.95;;;;;;;;;;10226407;29;20042;-89
2023/09/01 05:11:57;;;;;;;22.20;14.43;;;;;;;;;;10227658;28;21199;-91
2023/09/01 05:16:59;;;;;;;23.20;14.68;;;;;;;;;;10227481;28;20043;-90
2023/09/01 05:22:00;;;;;;;25.25;14.95;;;;;;;;;;10229037;29;20035;-88
2023/09/01 05:27:03;;;;;;;21.05;13.18;;;;;;;;;;10225874;29;20047;-91
2023/09/01 05:32:04;;;;;;;26.60;14.63;;;;;;;;;;10227429;29;20035;-88
2023/09/01 05:37:07;;;;;;;22.48;14.15;;;;;;;;;;10232007;29;20055;-88
2023/09/01 05:42:09;;;;;;;22.35;14.10;;;;;;;;;;10205146;29;20087;-89
2023/09/01 05:47:10;;;;;;;23.35;16.00;;;;;;;;;;10213658;29;20053;-89
2023/09/01 05:52:11;;;;;;;19.85;12.52;;;;;;;;;;10229637;29;20031;-88
2023/09/01 05:57:12;;;;;;;16.85;10.45;;;;;;;;;;10232756;29;20059;-88
2023/09/01 06:02:13;;;;;;;16.05;9.30;;;;;;;;;;10213230;29;20079;-88
2023/09/01 06:07:14;;;;;;;10.88;7.25;;;;;;;;;;10203805;29;20027;-90
2023/09/01 06:12:15;;;;;;;11.18;6.88;;;;;;;;;;10242604;28;20035;-90
2023/09/01 06:17:16;;;;;;;14.95;7.80;;;;;;;;;;10218563;29;20035;-89
2023/09/01 06:22:17;;;;;;;15.32;9.13;;;;;;;;;;10213224;29;20468;-91
2023/09/01 06:27:18;;;;;;;15.43;9.60;;;;;;;;;;10220698;29;20039;-90
2023/09/01 06:32:19;;;;;;;14.27;8.45;;;;;;;;;;10237486;29;20111;-91
2023/09/01 06:37:20;;;;;;;14.23;8.55;;;;;;;;;;10209491;29;20054;-89
2023/09/01 06:42:21;;;;;;;14.25;8.82;;;;;;;;;;10238886;29;20145;-88
2023/09/01 06:47:22;;;;;;;16.88;10.65;;;;;;;;;;10224884;29;20028;-90
2023/09/01 06:52:23;;;;;;;14.43;8.50;;;;;;;;;;10217277;29;20042;-89
2023/09/01 06:57:24;;;;;;;11.38;7.47;;;;;;;;;;10219939;29;20047;-91
2023/09/01 07:02:25;;;;;;;11.68;6.22;;;;;;;;;;10224938;29;20042;-87
2023/09/01 07:07:26;;;;;;;9.63;5.72;;;;;;;;;;10238178;29;20501;-88
2023/09/01 07:12:27;;;;;;;10.10;5.30;;;;;;;;;;10237422;29;20125;-90
2023/09/01 07:17:28;;;;;;;8.63;5.95;;;;;;;;;;10211480;29;20535;-89
2023/09/01 07:22:30;;;;;;;9.23;5.85;;;;;;;;;;10223542;29;20036;-88
2023/09/01 07:27:31;;;;;;;14.20;6.07;;;;;;;;;;10211195;29;20031;-90
2023/09/01 07:32:32;;;;;;;7.97;4.80;;;;;;;;;;10225121;28;20432;-87
2023/09/01 07:37:33;;;;;;;8.68;5.07;;;;;;;;;;10212731;29;20094;-90
2023/09/01 07:42:34;;;;;;;12.30;5.70;;;;;;;;;;10226967;29;20428;-87
2023/09/01 07:47:35;;;;;;;9.60;4.57;;;;;;;;;;10219783;29;20118;-88
2023/09/01 07:52:39;;;;;;;9.80;4.35;;;;;;;;;;10235729;29;20369;-87
2023/09/01 07:57:40;;;;;;;9.65;5.00;;;;;;;;;;10243830;29;20055;-87
2023/09/01 08:02:41;;;;;;;10.80;4.97;;;;;;;;;;10245445;29;20439;-85
2023/09/01 08:07:42;;;;;;;7.80;4.57;;;;;;;;;;10243342;29;20035;-87
2023/09/01 08:12:43;;;;;;;6.75;4.00;;;;;;;;;;10217085;29;20624;-88
2023/09/01 08:17:49;;;;;;;6.15;3.50;;;;;;;;;;10225144;29;20117;-88
2023/09/01 08:22:51;;;;;;;6.35;3.63;;;;;;;;;;10224593;28;20031;-86
2023/09/01 08:27:52;;;;;;;3.85;2.50;;;;;;;;;;10233016;29;20036;-88
2023/09/01 08:32:53;;;;;;;6.03;2.83;;;;;;;;;;10227395;29;20043;-89
2023/09/01 08:37:54;;;;;;;6.53;3.03;;;;;;;;;;10219474;29;20040;-88
2023/09/01 08:42:55;;;;;;;5.97;3.22;;;;;;;;;;10241742;28;20747;-89
2023/09/01 08:47:56;;;;;;;6.10;3.25;;;;;;;;;;10234915;28;20027;-89
2023/09/01 08:53:02;;;;;;;7.43;2.80;;;;;;;;;;10239644;28;20082;-88
2023/09/01 08:58:03;;;;;;;6.20;3.22;;;;;;;;;;10205300;28;20098;-86
2023/09/01 09:03:05;;;;;;;5.60;3.08;;;;;;;;;;10195572;29;20154;-85
2023/09/01 09:08:07;;;;;;;6.88;2.95;;;;;;;;;;10200837;29;20127;-86
2023/09/01 09:13:21;;;;;;;4.20;2.63;;;;;;;;;;10180726;29;20032;-89
2023/09/01 09:18:29;;;;;;;5.88;2.65;;;;;;;;;;10188348;29;20548;-86
2023/09/01 09:23:43;;;;;;;5.35;2.42;;;;;;;;;;10193534;29;20059;-86
2023/09/01 09:28:46;;;;;;;6.27;2.43;;;;;;;;;;10173701;29;20477;-86
2023/09/01 09:33:47;;;;;;;4.05;2.40;;;;;;;;;;10184751;29;20036;-88
2023/09/01 09:38:49;;;;;;;5.97;2.83;;;;;;;;;;10180818;29;20182;-85
2023/09/01 09:43:50;;;;;;;5.18;2.50;;;;;;;;;;10179085;29;20070;-86
2023/09/01 09:48:51;;;;;;;8.65;2.40;;;;;;;;;;10187921;29;20062;-88
2023/09/01 09:53:54;;;;;;;7.20;2.80;;;;;;;;;;10170772;29;20035;-87
2023/09/01 09:58:55;;;;;;;6.53;3.05;;;;;;;;;;10172527;29;20083;-86
2023/09/01 10:03:58;;;;;;;4.95;2.47;;;;;;;;;;10170301;29;20134;-86
2023/09/01 10:08:59;;;;;;;8.50;3.15;;;;;;;;;;10169810;29;20409;-86
2023/09/01 10:14:01;;;;;;;7.30;3.10;;;;;;;;;;10182790;29;20131;-88
2023/09/01 10:19:02;;;;;;;6.68;3.40;;;;;;;;;;10194537;29;20479;-86
2023/09/01 10:24:03;;;;;;;6.55;3.10;;;;;;;;;;10195705;29;20110;-88
2023/09/01 10:29:05;;;;;;;7.10;3.03;;;;;;;;;;10174460;29;20050;-88
2023/09/01 10:34:12;;;;;;;5.15;3.10;;;;;;;;;;10172154;29;20488;-83
2023/09/01 10:39:16;;;;;;;6.00;3.17;;;;;;;;;;10164477;29;20090;-88
2023/09/01 10:44:17;;;;;;;5.32;2.65;;;;;;;;;;10144500;29;20036;-86
2023/09/01 10:49:19;;;;;;;3.95;2.72;;;;;;;;;;10154695;29;20044;-90
2023/09/01 10:54:39;;;;;;;4.95;3.10;;;;;;;;;;10165999;29;20521;-87
2023/09/01 10:59:40;;;;;;;6.53;3.03;;;;;;;;;;10187557;29;20043;-90
2023/09/01 11:04:41;;;;;;;6.72;2.88;;;;;;;;;;10152788;29;20077;-87
2023/09/01 11:09:42;;;;;;;5.43;2.35;;;;;;;;;;10186923;29;20568;-87
2023/09/01 11:14:55;;;;;;;4.28;3.05;;;;;;;;;;10178985;29;20028;-89
2023/09/01 11:19:56;;;;;;;5.43;3.03;;;;;;;;;;10172901;29;20131;-87
2023/09/01 11:24:57;;;;;;;6.90;2.92;;;;;;;;;;10163756;29;20393;-88
2023/09/01 11:30:02;;;;;;;6.72;3.55;;;;;;;;;;10177796;29;20043;-85
2023/09/01 11:35:05;;;;;;;;;;;;;;;;;;10177082;29;20031;-85
2023/09/01 11:40:09;;;;;;;7.10;2.95;;;;;;;;;;10177189;29;19927;-85
2023/09/01 11:45:11;;;;;;;6.22;2.70;;;;;;;;;;10164106;29;20476;-86
2023/09/01 11:50:13;;;;;;;5.47;2.80;;;;;;;;;;10161323;29;20441;-89
2023/09/01 11:55:27;;;;;;;8.07;2.85;;;;;;;;;;10173392;29;20091;-85
2023/09/01 12:00:32;;;;;;;4.00;2.45;;;;;;;;;;10187242;29;20078;-88
2023/09/01 12:05:37;;;;;;;4.25;2.60;;;;;;;;;;10157193;29;20035;-85
2023/09/01 12:10:40;;;;;;;4.03;2.38;;;;;;;;;;10200618;29;20097;-86
2023/09/01 12:16:01;;;;;;;5.72;2.55;;;;;;;;;;10168902;29;20776;-88
2023/09/01 12:21:05;;;;;;;9.05;3.17;;;;;;;;;;10174635;29;20043;-86
2023/09/01 12:26:06;;;;;;;4.32;2.85;;;;;;;;;;10163132;29;20024;-85
2023/09/01 12:31:08;;;;;;;4.15;2.25;;;;;;;;;;10161018;29;20095;-88
2023/09/01 12:36:09;;;;;;;5.78;2.55;;;;;;;;;;10180502;29;20551;-87
2023/09/01 12:41:10;;;;;;;5.88;2.40;;;;;;;;;;10179997;29;20642;-87
2023/09/01 12:46:11;;;;;;;4.53;2.58;;;;;;;;;;10187698;29;20091;-85
2023/09/01 12:51:13;;;;;;;3.60;2.28;;;;;;;;;;10175063;29;20038;-88
2023/09/01 12:56:14;;;;;;;3.88;2.05;;;;;;;;;;10181824;29;20044;-90
2023/09/01 13:01:16;;;;;;;3.95;2.55;;;;;;;;;;10190508;29;20027;-87
2023/09/01 13:06:17;;;;;;;3.92;2.58;;;;;;;;;;10193782;29;20020;-88
2023/09/01 13:11:18;;;;;;;5.85;2.53;;;;;;;;;;10180418;29;20686;-87
2023/09/01 13:16:19;;;;;;;6.75;2.60;;;;;;;;;;10207975;29;20044;-88
2023/09/01 13:21:20;;;;;;;4.90;2.97;;;;;;;;;;10175922;29;20039;-89
2023/09/01 13:26:21;;;;;;;5.60;2.55;;;;;;;;;;10167588;29;20555;-89
2023/09/01 13:31:22;;;;;;;4.22;2.40;;;;;;;;;;10178483;29;20069;-88
2023/09/01 13:36:23;;;;;;;3.33;2.10;;;;;;;;;;10187815;29;20040;-87
2023/09/01 13:41:24;;;;;;;4.28;2.15;;;;;;;;;;10162091;29;20026;-87
2023/09/01 13:46:26;;;;;;;4.93;2.70;;;;;;;;;;10178830;29;20027;-85
2023/09/01 13:51:28;;;;;;;5.85;2.63;;;;;;;;;;10185383;29;20024;-87
2023/09/01 13:56:31;;;;;;;3.28;2.13;;;;;;;;;;10164496;29;20638;-90
2023/09/01 14:01:32;;;;;;;4.65;2.05;;;;;;;;;;10178761;29;20042;-87
2023/09/01 14:06:34;;;;;;;4.60;2.17;;;;;;;;;;10178532;29;20625;-86
2023/09/01 14:11:35;;;;;;;6.18;2.72;;;;;;;;;;10188302;29;20042;-88
2023/09/01 14:16:39;;;;;;;4.30;2.03;;;;;;;;;;10175975;29;20040;-87
2023/09/01 14:21:40;;;;;;;4.30;2.33;;;;;;;;;;10176880;29;20134;-88
2023/09/01 14:26:42;;;;;;;4.18;2.20;;;;;;;;;;10193667;29;20126;-87
2023/09/01 14:31:43;;;;;;;6.22;2.00;;;;;;;;;;10181500;29;20047;-87
2023/09/01 14:36:44;;;;;;;5.15;2.42;;;;;;;;;;10169333;29;20079;-89
2023/09/01 14:41:45;;;;;;;3.35;2.13;;;;;;;;;;10175565;29;20046;-87
2023/09/01 14:46:46;;;;;;;4.15;2.00;;;;;;;;;;10158822;29;20108;-88
2023/09/01 14:51:47;;;;;;;4.22;2.00;;;;;;;;;;10188819;29;20088;-87
2023/09/01 14:56:48;;;;;;;3.22;1.85;;;;;;;;;;10237499;28;20059;-86
2023/09/01 15:01:49;;;;;;;4.07;1.85;;;;;;;;;;10214061;29;20024;-88
2023/09/01 15:06:51;;;;;;;3.85;2.20;;;;;;;;;;10216358;29;20031;-89
2023/09/01 15:11:53;;;;;;;2.88;1.73;;;;;;;;;;10226637;29;20066;-87
2023/09/01 15:16:54;;;;;;;3.28;2.38;;;;;;;;;;10226572;29;20027;-91
2023/09/01 15:21:56;;;;;;;4.70;2.42;;;;;;;;;;10211266;29;20035;-85
2023/09/01 15:26:57;;;;;;;3.42;2.40;;;;;;;;;;10228442;29;20034;-86
2023/09/01 15:37:41;;;;;;;3.25;2.00;;;;;;;;;;10230987;29;20043;-87
2023/09/01 15:42:42;;;;;;;4.40;2.33;;;;;;;;;;10224959;29;20406;-86
2023/09/01 15:47:43;;;;;;;3.13;1.95;;;;;;;;;;10234500;29;20562;-89
2023/09/01 15:52:44;;;;;;;4.28;2.38;;;;;;;;;;10218374;29;20028;-88
2023/09/01 15:57:45;;;;;;;4.03;2.30;;;;;;;;;;10229292;29;20058;-87
2023/09/01 16:02:46;;;;;;;3.97;2.75;;;;;;;;;;10220183;29;20034;-90
2023/09/01 16:07:47;;;;;;;4.32;2.22;;;;;;;;;;10245848;28;20042;-86
2023/09/01 16:12:48;;;;;;;3.42;2.15;;;;;;;;;;10221708;29;20182;-89
2023/09/01 16:17:49;;;;;;;2.97;2.10;;;;;;;;;;10228170;29;20043;-87
2023/09/01 16:22:50;;;;;;;4.28;2.53;;;;;;;;;;10230401;29;20503;-87
2023/09/01 16:27:52;;;;;;;5.40;2.40;;;;;;;;;;10231656;29;20638;-88
2023/09/01 16:32:53;;;;;;;4.22;2.50;;;;;;;;;;10238446;29;20134;-87
2023/09/01 16:37:54;;;;;;;4.57;2.75;;;;;;;;;;10224881;29;20050;-85
2023/09/01 16:42:56;;;;;;;3.85;2.63;;;;;;;;;;10221338;29;20030;-90
2023/09/01 16:48:01;;;;;;;7.07;2.78;;;;;;;;;;10236860;28;20027;-89
2023/09/01 16:53:03;;;;;;;7.23;2.43;;;;;;;;;;10231613;28;20046;-91
2023/09/01 16:58:04;;;;;;;6.35;2.95;;;;;;;;;;10227137;29;20134;-88
2023/09/01 17:03:05;;;;;;;4.60;2.72;;;;;;;;;;10230198;29;20027;-87
2023/09/01 17:08:06;;;;;;;6.30;2.85;;;;;;;;;;10234427;28;20094;-90
2023/09/01 17:13:49;;;;;;;4.00;2.30;;;;;;;;;;10232915;29;20086;-91
2023/09/01 17:18:55;;;;;;;5.05;2.80;;;;;;;;;;10211551;29;20074;-90
2023/09/01 17:23:56;;;;;;;5.03;3.03;;;;;;;;;;10214028;29;20070;-89
2023/09/01 17:29:06;;;;;;;3.72;2.60;;;;;;;;;;10215500;29;20039;-90
2023/09/01 17:34:10;;;;;;;3.72;2.80;;;;;;;;;;10217062;29;20032;-89
2023/09/01 17:39:11;;;;;;;5.43;3.20;;;;;;;;;;10222672;29;20558;-90
2023/09/01 17:44:12;;;;;;;5.75;3.20;;;;;;;;;;10219326;29;20427;-89
2023/09/01 17:49:13;;;;;;;5.68;3.60;;;;;;;;;;10206626;28;20042;-92
2023/09/01 17:54:14;;;;;;;6.20;3.88;;;;;;;;;;10221403;29;20414;-91
2023/09/01 17:59:17;;;;;;;7.35;3.50;;;;;;;;;;10188918;29;20100;-90
2023/09/01 18:04:18;;;;;;;7.03;3.50;;;;;;;;;;10166984;29;20044;-89
2023/09/01 18:09:20;;;;;;;6.47;4.32;;;;;;;;;;10185221;29;20058;-90
2023/09/01 18:14:23;;;;;;;6.90;3.95;;;;;;;;;;10166505;29;20110;-91
2023/09/01 18:19:24;;;;;;;8.48;4.63;;;;;;;;;;10162175;29;21260;-91
2023/09/01 18:24:26;;;;;;;7.57;4.70;;;;;;;;;;10168325;29;20032;-90
2023/09/01 18:29:30;;;;;;;7.25;5.00;;;;;;;;;;10174637;29;20028;-88
2023/09/01 18:34:34;;;;;;;5.95;4.10;;;;;;;;;;10180314;29;20050;-93
2023/09/01 18:39:35;;;;;;;7.25;4.60;;;;;;;;;;10170586;29;20040;-86
2023/09/01 18:44:37;;;;;;;6.38;4.22;;;;;;;;;;10164470;29;20046;-88
2023/09/01 18:49:40;;;;;;;8.35;4.72;;;;;;;;;;10184061;29;20035;-86
2023/09/01 18:54:42;;;;;;;6.93;4.90;;;;;;;;;;10157054;29;20797;-88
2023/09/01 18:59:44;;;;;;;5.82;4.15;;;;;;;;;;10171683;29;20047;-89
2023/09/01 19:04:45;;;;;;;9.88;5.13;;;;;;;;;;10161271;29;20040;-88
2023/09/01 19:09:46;;;;;;;8.75;4.97;;;;;;;;;;10172769;29;20040;-89
2023/09/01 19:14:47;;;;;;;11.10;5.32;;;;;;;;;;10165548;29;20056;-89
2023/09/01 19:19:48;;;;;;;8.48;5.40;;;;;;;;;;10168883;29;20052;-88
2023/09/01 19:24:49;;;;;;;11.07;6.13;;;;;;;;;;10182700;29;20044;-89
2023/09/01 19:29:50;;;;;;;9.15;6.40;;;;;;;;;;10172024;28;20032;-92
2023/09/01 19:34:51;;;;;;;11.80;6.40;;;;;;;;;;10167763;29;20103;-91
2023/09/01 19:39:52;;;;;;;12.82;7.38;;;;;;;;;;10175422;29;20115;-89
2023/09/01 19:44:53;;;;;;;13.73;6.85;;;;;;;;;;10177696;29;20452;-90
2023/09/01 19:49:55;;;;;;;9.60;6.32;;;;;;;;;;10171903;29;20036;-91
2023/09/01 19:54:56;;;;;;;10.43;6.43;;;;;;;;;;10176523;29;20056;-91
2023/09/01 19:59:57;;;;;;;14.93;7.22;;;;;;;;;;10176230;29;20403;-90
2023/09/01 20:04:58;;;;;;;11.50;7.47;;;;;;;;;;10183303;29;20125;-90
2023/09/01 20:09:59;;;;;;;10.68;6.47;;;;;;;;;;10155219;29;20083;-90
2023/09/01 20:15:00;;;;;;;13.85;7.25;;;;;;;;;;10178672;29;20111;-90
2023/09/01 20:20:02;;;;;;;12.77;8.48;;;;;;;;;;10176031;29;20411;-90
2023/09/01 20:25:03;;;;;;;12.98;9.40;;;;;;;;;;10175915;29;20035;-90
2023/09/01 20:30:04;;;;;;;12.00;8.40;;;;;;;;;;10172642;29;20047;-91
2023/09/01 20:35:06;;;;;;;12.40;8.15;;;;;;;;;;10186468;29;20024;-92
2023/09/01 20:40:07;;;;;;;11.05;7.82;;;;;;;;;;10186486;29;20071;-91
2023/09/01 20:45:08;;;;;;;14.70;8.30;;;;;;;;;;10187172;29;20098;-92
2023/09/01 20:50:10;;;;;;;14.23;7.63;;;;;;;;;;10179426;29;20055;-91
2023/09/01 20:55:11;;;;;;;10.30;7.15;;;;;;;;;;10177467;29;20069;-92
2023/09/01 21:00:13;;;;;;;10.77;7.30;;;;;;;;;;10180248;29;20048;-90
2023/09/01 21:05:15;;;;;;;13.02;7.22;;;;;;;;;;10178775;29;20032;-92
2023/09/01 21:10:17;;;;;;;11.25;6.90;;;;;;;;;;10183864;29;20066;-90
2023/09/01 21:15:18;;;;;;;14.00;7.00;;;;;;;;;;10182883;29;20210;-90
2023/09/01 21:20:19;;;;;;;11.90;7.05;;;;;;;;;;10191091;29;20139;-89
2023/09/01 21:25:20;;;;;;;11.57;7.20;;;;;;;;;;10172876;29;20152;-90
2023/09/01 21:30:21;;;;;;;8.05;6.13;;;;;;;;;;10157130;29;20040;-92
2023/09/01 21:35:22;;;;;;;10.70;7.13;;;;;;;;;;10164246;29;20047;-92
2023/09/01 21:40:23;;;;;;;10.85;6.70;;;;;;;;;;10157402;29;20039;-91
2023/09/01 21:45:24;;;;;;;11.40;7.03;;;;;;;;;;10173699;29;20039;-92
2023/09/01 21:50:25;;;;;;;13.23;6.97;;;;;;;;;;10182466;29;20028;-90
2023/09/01 21:55:27;;;;;;;9.32;6.55;;;;;;;;;;10175980;29;20070;-90
2023/09/01 22:00:28;;;;;;;10.43;6.65;;;;;;;;;;10175393;29;20058;-93
2023/09/01 22:05:29;;;;;;;10.48;7.18;;;;;;;;;;10177411;29;20088;-90
2023/09/01 22:10:30;;;;;;;8.73;7.05;;;;;;;;;;10168811;29;20046;-88
2023/09/01 22:15:31;;;;;;;10.63;7.28;;;;;;;;;;10162190;29;20042;-88
2023/09/01 22:20:32;;;;;;;14.45;7.50;;;;;;;;;;10173129;29;20056;-89
2023/09/01 22:25:34;;;;;;;12.18;7.43;;;;;;;;;;10179409;29;20047;-89
2023/09/01 22:30:35;;;;;;;11.55;7.05;;;;;;;;;;10176715;29;20039;-89
2023/09/01 22:35:36;;;;;;;11.32;7.03;;;;;;;;;;10189128;29;20067;-90
2023/09/01 22:40:37;;;;;;;11.27;7.30;;;;;;;;;;10176286;29;20082;-89
2023/09/01 22:45:38;;;;;;;9.43;6.65;;;;;;;;;;10171147;29;20487;-89
2023/09/01 22:50:39;;;;;;;11.38;7.35;;;;;;;;;;10174456;29;20042;-93
2023/09/01 22:55:40;;;;;;;11.50;7.65;;;;;;;;;;10181692;29;20178;-90
2023/09/01 23:00:41;;;;;;;14.48;7.53;;;;;;;;;;10175038;29;20135;-91
2023/09/01 23:05:42;;;;;;;14.57;8.27;;;;;;;;;;10181526;29;20126;-91
2023/09/01 23:10:43;;;;;;;11.57;7.82;;;;;;;;;;10164275;29;20091;-91
2023/09/01 23:15:44;;;;;;;11.32;7.68;;;;;;;;;;10172659;29;20123;-91
2023/09/01 23:20:45;;;;;;;10.32;7.68;;;;;;;;;;10168917;29;20050;-92
2023/09/01 23:25:46;;;;;;;15.80;8.77;;;;;;;;;;10175763;29;20106;-92
2023/09/01 23:30:48;;;;;;;12.75;8.10;;;;;;;;;;10176481;29;20408;-92
2023/09/01 23:35:49;;;;;;;14.05;9.02;;;;;;;;;;10194726;29;20147;-92
2023/09/01 23:40:50;;;;;;;14.77;8.43;;;;;;;;;;10189063;29;20142;-91
2023/09/01 23:46:00;;;;;;;11.40;8.52;;;;;;;;;;10181954;29;20492;-95
2023/09/01 23:51:01;;;;;;;12.55;8.30;;;;;;;;;;10175929;29;20024;-90
2023/09/01 23:56:02;;;;;;;14.23;9.60;;;;;;;;;;10189115;29;20048;-90
